Flight Track Log - Related Links

Times and Time Zones

All times are in EDT time to prevent confusion due to time zone crossing. See the PDT4373 flight status page for this flight to view local times or setup timezone preferences in your user account.

Time Position Orientation Groundspeed Altitude Reporting Facility
EDT Latitude Longitude Course Direction KTS MPH feet Rate Location/Type
Thu 11:39:00 AM 42.0389 -75.9241 180° South  Level Estimated
Thu 11:40:00 AM 41.9807 -75.9260 181° South  Level FlightAware Approximate
Thu 11:41:00 AM 41.9226 -75.9278 181° South  Level FlightAware Approximate
Thu 11:42:00 AM 41.8662 -75.9084 154° Southeast  Level Estimated
Thu 11:43:00 AM 41.8099 -75.8889 160° South  Level Estimated
Thu 11:44:00 AM 41.7536 -75.8695 159° South  Level Estimated
Thu 11:45:00 AM 41.6966 -75.8539 168° South  Level FlightAware Approximate
Thu 11:46:00 AM 41.6403 -75.8344 153° Southeast  Level Estimated
Thu 11:47:00 AM 41.5839 -75.8150 161° South  Level Estimated
Thu 11:48:00 AM 41.5284 -75.7918 163° South  Level FlightAware Approximate
Thu 11:49:00 AM 41.4729 -75.7687 163° South  Level FlightAware Approximate
Thu 11:50:00 AM 41.4165 -75.7497 162° South  Level Estimated
Thu 11:51:00 AM 41.3613 -75.7253 162° South  Level FlightAware Approximate
Thu 11:52:00 AM 41.3060 -75.7009 162° South  Level FlightAware Approximate
Thu 11:53:00 AM 41.2508 -75.6766 162° South  Level FlightAware Approximate
Thu 11:54:00 AM 41.1956 -75.6523 162° South  Level FlightAware Approximate
Thu 11:55:00 AM 41.1390 -75.6344 159° South  Level Estimated
Thu 11:56:00 AM 41.0824 -75.6165 163° South  Level Estimated
Thu 11:57:00 AM 41.0275 -75.5913 161° South  Level FlightAware Approximate
Thu 11:58:00 AM 40.9725 -75.5662 161° South  Level FlightAware Approximate
Thu 11:59:00 AM 40.9175 -75.5412 161° South  Level FlightAware Approximate
Thu 12:00:00 PM 40.8607 -75.5246 190° South  Level Estimated
Thu 12:01:00 PM 40.8026 -75.5206 177° South  Level FlightAware Approximate
Thu 12:02:00 PM 40.7445 -75.5166 177° South  Level FlightAware Approximate
Thu 12:03:00 PM 40.6864 -75.5127 177° South  Level FlightAware Approximate
Thu 12:04:00 PM 40.6300 -75.4936 187° South  Level Estimated
Thu 12:05:00 PM 40.5720 -75.4995 184° South  Level FlightAware Approximate
Thu 12:05:03 PM 40.5833 -75.3833 143° Southeast 228 262 5,000  Level Philadelphia TRACON
Thu 12:05:58 PM 40.5333 -75.4167 207° Southwest 215 247 5,000  Level Philadelphia TRACON
Thu 12:06:00 PM 40.5161 -75.4786 190° South  Level Estimated
Thu 12:06:57 PM 40.4833 -75.4500 207° Southwest 209 241 5,000  Level Philadelphia TRACON
Thu 12:07:00 PM 40.4591 -75.4939 192° South  Level FlightAware Approximate
Thu 12:07:58 PM 40.4333 -75.4833 207° Southwest 208 239 5,000  Level Philadelphia TRACON
Thu 12:08:00 PM 40.4021 -75.5092 192° South  Level FlightAware Approximate
Thu 12:08:58 PM 40.3667 -75.4833 180° South 204 235 4,600  Level Philadelphia TRACON
Thu 12:09:00 PM 40.3479 -75.4816 143° Southeast  Level Estimated
Thu 12:09:58 PM 40.3167 -75.4500 153° Southeast 212 244 3,900  Level Philadelphia TRACON
Thu 12:10:00 PM 40.2937 -75.4539 143° Southeast  Level Estimated
Thu 12:10:58 PM 40.2500 -75.4167 159° South 239 275 3,200  Level Philadelphia TRACON
Thu 12:11:58 PM 40.2000 -75.3833 153° Southeast 227 261 3,000 -100 Descending Philadelphia TRACON
Thu 12:12:58 PM 40.1333 -75.3667 169° South 203 234 3,000  Level Philadelphia TRACON
Thu 12:13:52 PM 40.0833 -75.3333 153° Southeast 214 246 3,000  Level Philadelphia TRACON
Thu 12:14:52 PM 40.0333 -75.3167 166° South 216 249 3,000 -474 Level Philadelphia TRACON
Thu 12:15:46 PM 39.9833 -75.2833 153° Southeast 195 224 2,100 -905 Descending Philadelphia TRACON
Thu 12:16:58 PM 39.9333 -75.2667 166° South 139 160 1,100 -803 Descending Philadelphia TRACON
Thu 12:17:53 PM 39.9000 -75.2500 159° South 131 151 400 -764 Descending Philadelphia TRACON
Thu 12:19:00 PM 39.8667 -75.2333 150° Southeast  Level FlightAware Approximate
Thu 12:26:00 PM 39.8722 -75.2409 150° Southeast  Level Estimated
Thu 12:27:00 PM 39.8722 -75.2409 150° Southeast  Level Estimated

Login

Don't have an account? Register now (free) for customized features, flight alerts, and more!